Time;durP1;ratioP1;P1;durP2;ratioP2;P2;SDS_P1;SDS_P2;PMS_P1;PMS_P2;Temp;Humidity;BMP_temperature;BMP_pressure;BME280_temperature;BME280_humidity;BME280_pressure;Samples;Min_cycle;Max_cycle;Signal;HPM_P1;HPM_P2
2024/04/10 00:00:52;;;;;;;2.93;1.77;;;;;;;12.22;66.77;101222.66;5385069;26;20867;-78
2024/04/10 00:03:18;;;;;;;3.03;1.67;;;;;;;12.13;67.36;101228.03;5385841;26;20231;-79
2024/04/10 00:05:46;;;;;;;2.40;1.70;;;;;;;12.33;66.86;101225.16;5384972;26;20239;-78
2024/04/10 00:08:11;;;;;;;3.70;1.70;;;;;;;12.19;67.43;101227.06;5385298;26;20277;-79
2024/04/10 00:10:39;;;;;;;2.47;2.07;;;;;;;12.11;67.82;101206.25;5384473;26;20243;-78
2024/04/10 00:13:05;;;;;;;2.03;1.83;;;;;;;12.00;67.87;101201.13;5384730;26;20322;-77
2024/04/10 00:15:35;;;;;;;2.63;1.73;;;;;;;12.05;67.44;101201.06;5384680;26;20243;-78
2024/04/10 00:18:01;;;;;;;3.43;1.90;;;;;;;11.65;68.07;101204.13;5384412;26;20232;-78
2024/04/10 00:20:29;;;;;;;4.83;2.03;;;;;;;11.63;69.11;101185.84;5384949;26;20262;-78
2024/04/10 00:22:54;;;;;;;5.57;2.23;;;;;;;11.56;69.06;101170.25;5384889;26;20235;-79
2024/04/10 00:25:22;;;;;;;2.80;2.20;;;;;;;11.20;70.01;101172.34;5383231;26;20239;-79
2024/04/10 00:27:48;;;;;;;3.67;2.00;;;;;;;11.62;69.63;101151.88;5385145;26;20239;-78
2024/04/10 00:30:15;;;;;;;4.43;2.53;;;;;;;11.39;70.47;101145.16;5385171;26;20348;-79
2024/04/10 00:32:45;;;;;;;3.03;2.13;;;;;;;11.72;69.61;101124.72;5384852;26;20235;-79
2024/04/10 00:35:13;;;;;;;3.17;2.00;;;;;;;11.58;69.95;101134.50;5384282;26;20232;-78
2024/04/10 00:37:38;;;;;;;6.00;2.47;;;;;;;11.84;69.32;101145.50;5384636;26;20236;-78
2024/04/10 00:40:08;;;;;;;4.57;2.67;;;;;;;11.82;68.42;101162.97;5384436;26;20792;-76
2024/04/10 00:42:33;;;;;;;4.30;2.60;;;;;;;11.91;68.33;101181.19;5384644;26;20793;-78
2024/04/10 00:45:01;;;;;;;4.27;2.10;;;;;;;11.85;68.33;101194.31;5384623;26;20244;-78
2024/04/10 00:47:27;;;;;;;5.50;2.30;;;;;;;12.03;68.18;101208.06;5384452;26;20262;-78
2024/04/10 00:49:59;;;;;;;3.33;1.93;;;;;;;12.05;68.19;101214.16;5383807;26;20246;-76
2024/04/10 00:52:26;;;;;;;3.43;2.43;;;;;;;11.58;68.97;101239.09;5385061;26;20239;-79
2024/04/10 00:54:54;;;;;;;3.17;2.33;;;;;;;11.84;68.70;101213.50;5383499;26;20235;-78
2024/04/10 00:57:22;;;;;;;3.27;2.03;;;;;;;11.88;68.44;101211.72;5384147;26;20267;-79
2024/04/10 00:59:51;;;;;;;3.30;2.70;;;;;;;11.57;68.95;101224.25;5384204;26;20244;-79
2024/04/10 01:02:16;;;;;;;3.60;2.30;;;;;;;11.56;69.54;101210.34;5384252;26;20251;-78
2024/04/10 01:04:48;;;;;;;4.07;2.40;;;;;;;11.45;69.92;101205.19;5383590;26;20242;-79
2024/04/10 01:07:17;;;;;;;4.23;2.53;;;;;;;11.25;70.79;101181.03;5384355;26;20235;-79
2024/04/10 01:09:45;;;;;;;5.93;2.37;;;;;;;11.36;70.17;101173.94;5382516;26;20274;-79
2024/04/10 01:12:10;;;;;;;5.27;2.97;;;;;;;11.29;69.88;101185.34;5383227;26;20285;-80
2024/04/10 01:14:38;;;;;;;4.83;2.23;;;;;;;11.56;69.29;101173.72;5384177;26;20287;-79
2024/04/10 01:17:04;;;;;;;7.80;2.20;;;;;;;11.59;68.80;101180.66;5383247;26;20239;-80
2024/04/10 01:19:34;;;;;;;6.73;2.30;;;;;;;11.22;70.23;101197.59;5383073;26;20242;-79
2024/04/10 01:21:59;;;;;;;3.73;2.50;;;;;;;11.49;69.67;101195.59;5381375;26;20232;-78
2024/04/10 01:24:30;;;;;;;3.20;2.33;;;;;;;11.62;69.75;101181.50;5382310;26;20307;-79
2024/04/10 01:26:55;;;;;;;5.20;2.20;;;;;;;11.45;70.39;101201.72;5383305;26;20632;-79
2024/04/10 01:29:24;;;;;;;3.10;2.60;;;;;;;11.43;69.94;101199.13;5383423;26;20340;-79
2024/04/10 01:31:49;;;;;;;3.20;2.90;;;;;;;11.48;70.43;101186.03;5385851;26;20278;-79
2024/04/10 01:34:17;;;;;;;5.67;2.60;;;;;;;11.47;70.04;101192.97;5387203;26;20239;-79
2024/04/10 01:36:42;;;;;;;4.50;2.10;;;;;;;11.49;70.34;101179.91;5387490;26;20274;-79
2024/04/10 01:39:11;;;;;;;6.53;2.70;;;;;;;10.92;72.83;101185.66;5388396;26;20235;-80
2024/04/10 01:41:39;;;;;;;3.73;2.67;;;;;;;10.95;72.58;101164.75;5385812;26;20242;-78
2024/04/10 01:44:07;;;;;;;5.17;2.93;;;;;;;10.74;73.28;101142.28;5384045;26;20242;-80
2024/04/10 01:46:33;;;;;;;5.90;3.53;;;;;;;11.08;72.86;101129.81;5382541;26;20276;-78
2024/04/10 01:49:01;;;;;;;5.10;3.23;;;;;;;11.04;72.45;101148.13;5383654;26;20788;-79
2024/04/10 01:51:26;;;;;;;5.67;2.77;;;;;;;10.91;72.55;101145.63;5383255;26;20775;-79
2024/04/10 01:53:54;;;;;;;5.23;3.13;;;;;;;11.12;72.81;101131.50;5383958;26;20235;-79
2024/04/10 01:56:19;;;;;;;6.20;2.77;;;;;;;11.19;72.48;101134.03;5382386;26;20234;-78
2024/04/10 01:58:50;;;;;;;5.13;3.33;;;;;;;10.96;72.71;101143.00;5384058;26;20246;-78
2024/04/10 02:01:15;;;;;;;6.30;2.90;;;;;;;10.87;73.58;101130.84;5382488;26;20233;-78
2024/04/10 02:03:43;;;;;;;7.07;3.40;;;;;;;11.12;71.74;101135.88;5383020;26;20301;-79
2024/04/10 02:06:11;;;;;;;5.37;3.73;;;;;;;11.17;72.49;101141.03;5383077;26;20244;-79
2024/04/10 02:08:37;;;;;;;5.37;3.33;;;;;;;10.88;73.00;101142.16;5383329;26;20274;-79
2024/04/10 02:13:46;;;;;;;5.97;3.70;;;;;;;11.07;72.50;101143.72;5382956;26;20286;-78
2024/04/10 02:16:14;;;;;;;9.33;3.77;;;;;;;11.24;72.09;101137.50;5382059;26;20290;-78
2024/04/10 02:18:42;;;;;;;7.10;3.07;;;;;;;11.12;72.75;101148.94;5381585;26;20266;-79
2024/04/10 02:21:08;;;;;;;5.57;3.30;;;;;;;11.28;71.93;101147.88;5382388;26;20279;-79
2024/04/10 02:23:36;;;;;;;7.73;3.17;;;;;;;11.17;71.91;101162.81;5385700;26;20638;-80
2024/04/10 02:26:08;;;;;;;4.03;3.00;;;;;;;11.30;71.88;101164.41;5384553;26;20235;-78
2024/04/10 02:28:36;;;;;;;4.30;3.30;;;;;;;11.35;71.20;101169.59;5384928;26;20243;-79
2024/04/10 02:31:01;;;;;;;6.47;3.33;;;;;;;11.36;71.37;101188.75;5385737;26;20250;-78
2024/04/10 02:33:34;;;;;;;6.73;3.33;;;;;;;11.32;71.43;101178.34;5385915;26;20275;-78
2024/04/10 02:35:59;;;;;;;7.87;3.23;;;;;;;11.29;72.04;101194.03;5385300;26;20274;-77
2024/04/10 02:38:28;;;;;;;7.93;3.80;;;;;;;11.23;72.26;101191.47;5385739;26;20239;-78
2024/04/10 02:40:53;;;;;;;6.07;4.10;;;;;;;10.97;72.77;101204.78;5384265;26;20242;-80
2024/04/10 02:43:23;;;;;;;4.30;3.07;;;;;;;11.05;72.50;101207.34;5384917;26;21041;-78
2024/04/10 02:45:53;;;;;;;5.80;3.77;;;;;;;11.03;72.10;101214.31;5385630;26;20239;-78
2024/04/10 02:48:21;;;;;;;6.50;3.60;;;;;;;11.13;72.52;101211.59;5385571;26;20761;-77
2024/04/10 02:50:50;;;;;;;5.30;3.60;;;;;;;10.98;72.88;101226.53;5384474;26;20239;-77
2024/04/10 02:53:18;;;;;;;6.70;3.63;;;;;;;10.78;72.75;101230.16;5371209;26;20312;-79
2024/04/10 02:55:44;;;;;;;8.90;3.60;;;;;;;10.67;73.80;101219.81;5384241;26;20234;-79
2024/04/10 02:58:13;;;;;;;7.77;3.83;;;;;;;10.77;74.24;101185.81;5385362;26;20267;-78
2024/04/10 03:00:43;;;;;;;6.93;3.53;;;;;;;10.80;73.63;101188.38;5385060;26;20276;-78
2024/04/10 03:03:13;;;;;;;11.37;4.00;;;;;;;10.78;73.61;101188.38;5385154;26;20240;-79
2024/04/10 03:05:39;;;;;;;5.20;3.57;;;;;;;10.76;74.04;101182.31;5385191;26;20275;-78
2024/04/10 03:08:14;;;;;;;6.43;3.13;;;;;;;10.83;73.40;101198.81;5384416;26;20791;-78
2024/04/10 03:10:39;;;;;;;8.43;3.43;;;;;;;10.67;74.27;101191.09;5383426;26;20340;-78
2024/04/10 03:13:08;;;;;;;6.90;3.70;;;;;;;10.72;74.03;101197.16;5383388;26;20246;-77
2024/04/10 03:15:33;;;;;;;10.03;3.40;;;;;;;10.79;73.82;101194.50;5383653;26;20237;-78
2024/04/10 03:18:02;;;;;;;6.93;4.23;;;;;;;10.72;73.99;101183.22;5384321;26;20231;-77
2024/04/10 03:20:27;;;;;;;10.53;4.20;;;;;;;10.55;74.26;101209.44;5383901;26;20279;-80
2024/04/10 03:22:55;;;;;;;5.00;3.80;;;;;;;10.64;75.66;101171.97;5384673;26;20246;-78
2024/04/10 03:25:23;;;;;;;9.30;3.63;;;;;;;10.68;75.02;101174.56;5383613;26;20277;-78
2024/04/10 03:27:51;;;;;;;13.50;4.57;;;;;;;10.47;75.17;101180.78;5384639;26;20237;-78
2024/04/10 03:30:16;;;;;;;7.90;3.93;;;;;;;10.45;75.88;101179.06;5385192;26;20243;-78
2024/04/10 03:32:44;;;;;;;7.97;3.87;;;;;;;10.78;74.95;101175.31;5382261;26;20238;-79
2024/04/10 03:35:10;;;;;;;6.70;3.90;;;;;;;10.76;74.47;101190.13;5383494;26;20236;-79
2024/04/10 03:37:38;;;;;;;9.77;4.33;;;;;;;10.69;74.78;101206.75;5385141;26;20277;-78
2024/04/10 03:40:05;;;;;;;7.70;3.53;;;;;;;10.69;74.33;101218.06;5382959;26;20663;-77
2024/04/10 03:42:35;;;;;;;6.30;4.20;;;;;;;10.65;75.02;101215.47;5385049;26;20734;-78
2024/04/10 03:45:04;;;;;;;9.20;4.03;;;;;;;10.73;74.59;101218.91;5384589;26;20232;-79
2024/04/10 03:47:33;;;;;;;10.43;3.93;;;;;;;10.46;74.98;101215.56;5384524;26;20376;-78
2024/04/10 03:50:01;;;;;;;7.90;3.90;;;;;;;10.43;75.15;101228.66;5383914;26;20450;-79
2024/04/10 03:52:29;;;;;;;10.40;3.60;;;;;;;10.73;75.07;101219.75;5385611;26;20255;-78
2024/04/10 03:54:55;;;;;;;6.77;3.63;;;;;;;10.86;73.90;101223.16;5383328;26;20241;-78
2024/04/10 03:57:23;;;;;;;9.00;3.63;;;;;;;11.01;73.12;101253.50;5384244;26;20312;-78
2024/04/10 03:59:52;;;;;;;6.20;3.50;;;;;;;10.74;73.95;101262.41;5384752;26;20297;-78
2024/04/10 04:02:20;;;;;;;10.37;4.27;;;;;;;10.53;74.22;101269.50;5384080;26;20614;-78
2024/04/10 04:04:46;;;;;;;8.83;4.07;;;;;;;10.40;74.88;101272.19;5383174;26;20335;-78
2024/04/10 04:07:14;;;;;;;8.10;3.37;;;;;;;10.81;74.12;101260.63;5384047;26;20286;-78
2024/04/10 04:09:42;;;;;;;7.27;3.60;;;;;;;10.66;74.49;101282.47;5383481;26;20273;-76
2024/04/10 04:12:10;;;;;;;7.80;3.30;;;;;;;10.78;73.78;101305.03;5383896;26;20298;-78
2024/04/10 04:14:37;;;;;;;11.20;3.90;;;;;;;10.88;73.70;101296.25;5384019;26;20269;-78
2024/04/10 04:17:07;;;;;;;7.50;3.40;;;;;;;10.99;74.04;101301.44;5377720;26;20248;-79
2024/04/10 04:19:33;;;;;;;7.30;3.30;;;;;;;10.75;74.55;101318.13;5379853;26;20251;-78
2024/04/10 04:22:01;;;;;;;7.80;3.53;;;;;;;10.90;73.63;101329.34;5384121;26;20236;-78
2024/04/10 04:24:27;;;;;;;8.23;3.80;;;;;;;10.83;74.07;101347.69;5383844;26;20317;-79
2024/04/10 04:26:56;;;;;;;7.10;3.43;;;;;;;10.91;74.18;101343.28;5384579;26;20749;-78
2024/04/10 04:29:21;;;;;;;8.03;3.40;;;;;;;11.15;73.50;101355.31;5383763;26;20306;-79
2024/04/10 04:31:50;;;;;;;8.93;3.60;;;;;;;11.24;73.06;101377.94;5383796;26;20244;-78
2024/04/10 04:34:18;;;;;;;8.57;3.20;;;;;;;10.84;74.30;101388.56;5380351;26;20236;-79
2024/04/10 04:36:46;;;;;;;5.67;3.10;;;;;;;10.75;74.15;101381.66;5375253;26;20263;-78
2024/04/10 04:39:15;;;;;;;7.13;3.60;;;;;;;10.49;76.08;101377.41;5384743;26;20237;-78
2024/04/10 04:41:43;;;;;;;6.23;4.30;;;;;;;10.72;75.69;101358.16;5383358;26;20329;-78
2024/04/10 04:44:08;;;;;;;7.90;3.60;;;;;;;10.66;75.75;101347.75;5382991;26;20327;-78
2024/04/10 04:46:38;;;;;;;8.60;3.77;;;;;;;10.83;75.51;101348.53;5383351;26;20235;-78
2024/04/10 04:49:03;;;;;;;6.27;3.40;;;;;;;10.89;74.96;101363.31;5383837;26;20279;-78
2024/04/10 04:51:34;;;;;;;9.90;3.60;;;;;;;11.03;74.59;101371.94;5383853;26;20233;-78
2024/04/10 04:53:59;;;;;;;9.03;4.00;;;;;;;10.58;76.39;101375.63;5383523;26;20270;-78
2024/04/10 04:56:27;;;;;;;6.97;3.70;;;;;;;10.78;75.91;101359.88;5381557;26;20240;-78
2024/04/10 04:58:52;;;;;;;9.83;4.10;;;;;;;10.76;75.04;101378.16;5383393;26;20576;-77
2024/04/10 05:01:21;;;;;;;8.20;3.50;;;;;;;10.65;75.77;101398.25;5383098;26;20311;-78
2024/04/10 05:06:36;;;;;;;5.93;4.10;;;;;;;10.95;75.88;101370.25;5385778;26;20275;-78
2024/04/10 05:09:09;;;;;;;11.07;3.70;;;;;;;10.76;76.28;101378.16;5383342;26;20276;-80
2024/04/10 05:11:37;;;;;;;7.10;3.57;;;;;;;10.81;75.88;101381.63;5383439;26;20572;-78
2024/04/10 05:14:03;;;;;;;7.30;3.83;;;;;;;10.78;76.01;101386.84;5383645;26;20273;-78
2024/04/10 05:16:31;;;;;;;9.33;4.17;;;;;;;10.78;76.22;101376.41;5382925;26;20285;-78
2024/04/10 05:18:58;;;;;;;12.13;4.30;;;;;;;10.85;76.13;101377.28;5383437;26;20373;-78
2024/04/10 05:21:26;;;;;;;9.50;4.23;;;;;;;10.86;75.60;101389.44;5378829;26;20333;-79
2024/04/10 05:23:54;;;;;;;14.10;4.77;;;;;;;11.07;75.18;101401.53;5384042;26;20232;-79
2024/04/10 05:26:22;;;;;;;9.57;4.43;;;;;;;11.00;75.67;101419.00;5383553;26;20240;-79
2024/04/10 05:28:47;;;;;;;7.93;4.47;;;;;;;11.12;74.85;101426.75;5383647;26;20232;-79
2024/04/10 05:31:15;;;;;;;9.60;5.03;;;;;;;10.95;75.78;101435.56;5384076;26;20401;-78
2024/04/10 05:33:40;;;;;;;8.33;3.60;;;;;;;10.63;75.49;101445.25;5383832;26;20726;-79
2024/04/10 05:36:09;;;;;;;7.70;3.67;;;;;;;10.84;75.10;101439.09;5383264;26;20306;-78
2024/04/10 05:38:34;;;;;;;8.90;3.80;;;;;;;11.11;74.70;101443.31;5381338;26;20273;-79
2024/04/10 05:41:05;;;;;;;11.00;4.33;;;;;;;11.17;74.25;101465.94;5385621;26;20238;-79
2024/04/10 05:43:31;;;;;;;7.97;4.23;;;;;;;11.36;74.55;101471.94;5388317;26;20243;-81
2024/04/10 05:45:59;;;;;;;7.10;4.33;;;;;;;11.20;74.76;101492.06;5385633;26;20240;-80
2024/04/10 05:48:25;;;;;;;6.67;3.83;;;;;;;11.27;74.52;101493.75;5388368;26;20232;-81
2024/04/10 05:50:58;;;;;;;6.37;3.73;;;;;;;11.31;74.37;101497.22;5389590;26;20661;-80
2024/04/10 05:53:24;;;;;;;9.20;4.13;;;;;;;11.38;74.78;101495.44;5389518;26;20231;-81
2024/04/10 05:55:52;;;;;;;9.37;4.70;;;;;;;11.38;74.42;101496.31;5388857;26;20267;-81
2024/04/10 05:58:20;;;;;;;7.37;4.30;;;;;;;11.45;73.99;101499.78;5390670;26;20232;-81
2024/04/10 06:00:47;;;;;;;7.40;4.43;;;;;;;11.51;73.85;101515.41;5388121;26;20312;-81
2024/04/10 06:03:13;;;;;;;11.90;4.87;;;;;;;11.30;74.45;101530.34;5386825;26;20283;-81
2024/04/10 06:05:41;;;;;;;9.70;4.60;;;;;;;11.10;75.10;101529.56;5384754;26;20227;-81
2024/04/10 06:08:07;;;;;;;12.93;4.40;;;;;;;11.26;75.20;101509.47;5387017;26;20243;-79
2024/04/10 06:10:35;;;;;;;10.93;5.17;;;;;;;11.24;75.32;101512.09;5387526;26;20313;-81
2024/04/10 06:13:00;;;;;;;7.90;4.40;;;;;;;11.12;75.40;101496.47;5384705;26;20677;-80
2024/04/10 06:15:31;;;;;;;8.30;5.33;;;;;;;11.12;75.29;101499.06;5383650;26;20272;-81
2024/04/10 06:17:57;;;;;;;9.10;5.40;;;;;;;11.32;75.07;101507.69;5383058;26;20242;-78
2024/04/10 06:20:25;;;;;;;16.80;5.47;;;;;;;11.43;74.91;101515.47;5382282;26;20247;-81
2024/04/10 06:22:50;;;;;;;12.17;4.93;;;;;;;11.05;74.25;101539.16;5386448;26;20270;-82
2024/04/10 06:25:18;;;;;;;7.93;5.07;;;;;;;11.13;75.50;101533.00;5385938;26;20236;-80
2024/04/10 06:27:43;;;;;;;6.50;5.50;;;;;;;10.67;76.44;101537.50;5386923;26;20238;-81
2024/04/10 06:30:12;;;;;;;13.43;5.70;;;;;;;10.90;76.54;101513.94;5385596;26;20755;-82
2024/04/10 06:32:40;;;;;;;12.20;5.17;;;;;;;10.98;76.49;101500.84;5386457;26;20236;-81
2024/04/10 06:35:24;;;;;;;;;;;;;;;;;;;;;
2024/04/10 06:37:52;;;;;;;10.33;5.47;;;;;;;11.09;75.52;101513.00;5387402;26;20233;-80
2024/04/10 06:40:17;;;;;;;13.27;6.20;;;;;;;11.18;76.17;101517.34;5386251;26;20355;-81
2024/04/10 06:42:45;;;;;;;14.57;6.10;;;;;;;11.12;75.35;101515.63;5391636;26;20239;-79
2024/04/10 06:45:14;;;;;;;10.57;5.87;;;;;;;11.10;75.64;101534.78;5387669;26;20243;-83
2024/04/10 06:50:25;;;;;;;8.87;5.50;;;;;;;11.15;75.40;101546.06;5376717;26;20318;-82
2024/04/10 06:52:53;;;;;;;9.80;6.83;;;;;;;10.90;75.58;101564.44;5389723;26;20290;-82
2024/04/10 06:55:21;;;;;;;8.40;5.80;;;;;;;11.29;74.87;101548.63;5388504;26;20754;-81
2024/04/10 06:57:46;;;;;;;11.60;6.30;;;;;;;11.28;75.04;101565.22;5389743;26;20235;-82
2024/04/10 07:00:16;;;;;;;9.40;6.10;;;;;;;11.33;75.43;101566.91;5389605;26;20239;-81
2024/04/10 07:02:45;;;;;;;9.23;5.63;;;;;;;11.21;75.18;101585.25;5391383;26;20276;-81
2024/04/10 07:05:14;;;;;;;9.80;5.83;;;;;;;11.35;74.74;101589.56;5387691;26;20277;-80
2024/04/10 07:07:40;;;;;;;8.70;5.07;;;;;;;11.15;75.53;101595.72;5390342;26;20240;-81
2024/04/10 07:10:11;;;;;;;9.63;5.10;;;;;;;11.17;76.19;101591.38;5393292;26;20286;-82
2024/04/10 07:12:36;;;;;;;8.60;4.90;;;;;;;11.38;75.30;101571.25;5392041;26;20280;-81
2024/04/10 07:15:05;;;;;;;6.17;5.00;;;;;;;11.35;76.35;101576.50;5390795;26;20239;-80
2024/04/10 07:17:31;;;;;;;7.00;4.60;;;;;;;11.66;75.04;101579.88;5390224;26;20236;-79
2024/04/10 07:20:01;;;;;;;11.40;4.80;;;;;;;11.65;75.15;101599.88;5390079;26;20356;-79
2024/04/10 07:22:27;;;;;;;6.53;4.60;;;;;;;11.30;75.89;101619.22;5390874;26;20744;-80
2024/04/10 07:24:55;;;;;;;7.67;5.37;;;;;;;11.22;76.85;101600.09;5390490;26;20278;-79
2024/04/10 07:27:21;;;;;;;10.23;5.00;;;;;;;11.29;75.21;101599.16;5389632;26;20594;-82
2024/04/10 07:29:51;;;;;;;7.60;4.23;;;;;;;11.41;76.83;101584.31;5394113;26;20244;-79
2024/04/10 07:32:18;;;;;;;9.37;5.10;;;;;;;11.60;75.91;101582.50;5401489;26;20274;-82
2024/04/10 07:34:46;;;;;;;7.97;5.17;;;;;;;11.45;76.47;101588.66;5397547;26;20232;-82
2024/04/10 07:37:18;;;;;;;7.40;4.70;;;;;;;11.18;76.88;101590.50;5399639;26;20272;-80
2024/04/10 07:39:47;;;;;;;6.47;4.20;;;;;;;11.33;77.03;101576.50;5400750;26;20598;-80
2024/04/10 07:42:18;;;;;;;9.53;4.87;;;;;;;11.34;76.77;101580.88;5395096;26;20238;-81
2024/04/10 07:44:46;;;;;;;6.77;4.27;;;;;;;11.52;76.49;101600.84;5393470;26;20235;-81
2024/04/10 07:47:12;;;;;;;10.10;5.37;;;;;;;11.37;77.48;101603.50;5393623;26;20235;-82
2024/04/10 07:49:43;;;;;;;9.40;4.33;;;;;;;11.29;78.42;101582.63;5391872;26;20294;-82
2024/04/10 07:52:08;;;;;;;3.90;2.60;;;;;;;11.11;78.43;101573.97;5393734;26;20248;-82
2024/04/10 07:54:39;;;;;;;7.13;4.33;;;;;;;11.49;78.11;101561.63;5395110;26;20625;-81
2024/04/10 07:57:05;;;;;;;8.20;3.90;;;;;;;11.46;78.33;101562.50;5394423;26;20283;-82
2024/04/10 07:59:32;;;;;;;8.47;4.77;;;;;;;11.58;79.55;101540.66;5394092;26;20241;-79
2024/04/10 08:01:58;;;;;;;5.50;3.93;;;;;;;11.58;78.79;101548.50;5395425;26;20269;-81
2024/04/10 08:04:26;;;;;;;6.00;4.00;;;;;;;11.64;77.23;101573.78;5397056;26;20283;-81
2024/04/10 08:06:58;;;;;;;7.17;4.10;;;;;;;11.64;76.78;101587.72;5385051;26;20254;-82
2024/04/10 08:09:32;;;;;;;6.13;3.70;;;;;;;11.60;75.70;101619.13;5440305;21;21056;-81
2024/04/10 08:12:00;;;;;;;7.33;3.67;;;;;;;11.82;76.01;101641.69;5420651;26;20227;-81
2024/04/10 08:14:33;;;;;;;6.37;4.30;;;;;;;11.53;75.66;101670.56;5411009;26;20239;-84
2024/04/10 08:17:13;;;;;;;7.03;3.90;;;;;;;11.25;77.16;101654.06;5426315;26;20274;-81
2024/04/10 08:19:43;;;;;;;7.40;4.03;;;;;;;11.30;76.75;101660.19;5418645;26;20294;-82
2024/04/10 08:22:08;;;;;;;4.87;3.53;;;;;;;11.32;76.32;101658.44;5394236;26;20254;-81
2024/04/10 08:24:36;;;;;;;6.50;4.73;;;;;;;11.45;78.44;101644.44;5356980;26;20227;-80
2024/04/10 08:27:04;;;;;;;8.90;4.40;;;;;;;11.67;77.71;101642.63;5354730;26;20570;-80
2024/04/10 08:29:32;;;;;;;8.60;4.70;;;;;;;11.59;76.63;101662.69;5356525;26;20739;-79
2024/04/10 08:31:58;;;;;;;5.83;4.93;;;;;;;11.60;77.54;101669.66;5353615;26;20652;-81
2024/04/10 08:34:26;;;;;;;8.17;4.77;;;;;;;11.79;78.55;101631.22;5353382;26;20232;-81
2024/04/10 08:36:52;;;;;;;9.30;5.37;;;;;;;11.96;76.52;101662.56;5355061;26;20240;-82
2024/04/10 08:39:20;;;;;;;9.00;5.73;;;;;;;11.91;74.92;101698.34;5354866;26;20244;-81
2024/04/10 08:41:47;;;;;;;7.27;5.33;;;;;;;12.25;75.56;101695.56;5354682;26;21049;-80
2024/04/10 08:44:19;;;;;;;7.23;5.33;;;;;;;11.87;75.15;101734.13;5355844;26;20236;-80
2024/04/10 08:46:46;;;;;;;6.03;4.83;;;;;;;11.87;75.33;101735.84;5377865;26;20268;-80
2024/04/10 08:49:15;;;;;;;7.70;5.00;;;;;;;11.69;75.20;101739.38;5389158;26;20247;-80
2024/04/10 08:51:41;;;;;;;7.73;4.73;;;;;;;12.02;75.52;101742.81;5392795;26;20763;-80
2024/04/10 08:54:11;;;;;;;7.97;4.53;;;;;;;12.28;74.52;101742.69;5390391;26;20265;-81
2024/04/10 08:56:36;;;;;;;8.93;4.77;;;;;;;12.03;74.26;101773.31;5388762;26;20975;-79
2024/04/10 08:59:04;;;;;;;6.60;4.93;;;;;;;12.23;74.47;101782.00;5389256;26;20312;-80
2024/04/10 09:01:37;;;;;;;6.43;4.33;;;;;;;11.98;73.88;101814.34;5390903;26;20231;-82
2024/04/10 09:04:09;;;;;;;6.07;4.00;;;;;;;11.95;73.71;101827.44;5390126;26;20573;-83
2024/04/10 09:06:35;;;;;;;11.67;4.10;;;;;;;11.98;73.93;101827.44;5374796;26;20310;-81
2024/04/10 09:09:06;;;;;;;4.80;3.83;;;;;;;11.97;73.17;101844.91;5365079;26;20240;-82
2024/04/10 09:11:37;;;;;;;5.83;3.90;;;;;;;11.78;72.08;101883.25;5356156;26;20747;-82
2024/04/10 09:14:11;;;;;;;6.67;3.57;;;;;;;11.73;73.07;101878.03;5367518;26;20586;-82
2024/04/10 09:16:40;;;;;;;6.30;3.90;;;;;;;12.03;74.02;101852.72;5387028;26;20629;-81
2024/04/10 09:19:18;;;;;;;5.80;3.20;;;;;;;12.27;72.76;101846.56;5355262;26;20241;-81
2024/04/10 09:21:45;;;;;;;5.07;3.30;;;;;;;12.45;70.95;101895.38;5378225;26;20293;-80
2024/04/10 09:24:15;;;;;;;7.70;3.60;;;;;;;12.42;69.90;101936.41;5388615;26;20756;-80
2024/04/10 09:26:48;;;;;;;4.17;2.33;;;;;;;12.21;70.30;101953.91;5367844;26;20248;-81
2024/04/10 09:29:19;;;;;;;3.70;2.30;;;;;;;12.28;69.21;101987.03;5002324;26;9999941;-81
2024/04/10 09:31:47;;;;;;;5.70;3.30;;;;;;;12.38;69.69;101985.28;5375266;26;21000;-82
2024/04/10 09:34:20;;;;;;;5.37;3.63;;;;;;;12.23;68.52;102017.59;5368654;26;20240;-82
2024/04/10 09:36:46;;;;;;;7.00;2.90;;;;;;;12.18;69.57;102021.09;5368379;26;20274;-82
2024/04/10 09:39:22;;;;;;;7.60;4.10;;;;;;;12.01;70.61;102021.06;5380406;26;20255;-83
2024/04/10 09:41:47;;;;;;;5.47;3.33;;;;;;;12.38;70.43;101973.94;5379979;26;20312;-82
2024/04/10 09:44:23;;;;;;;6.40;3.20;;;;;;;12.20;69.68;101987.94;5378479;26;20240;-83
2024/04/10 09:46:58;;;;;;;7.23;3.67;;;;;;;12.65;70.37;101983.50;5381488;26;20661;-82
2024/04/10 09:49:29;;;;;;;6.80;3.10;;;;;;;12.12;68.87;101998.41;5378692;26;20242;-82
2024/04/10 09:53:34;;;;;;;6.90;3.37;;;;;;;12.30;68.63;102036.78;5568030;25;20646;-81
2024/04/10 09:56:01;;;;;;;3.63;2.37;;;;;;;12.45;67.50;102034.19;5520363;25;20264;-81
2024/04/10 09:58:30;;;;;;;5.47;2.50;;;;;;;12.73;67.63;102049.84;5507344;25;20237;-80
2024/04/10 10:01:04;;;;;;;4.83;2.80;;;;;;;12.78;67.51;102048.06;5479673;25;20298;-81
2024/04/10 10:03:32;;;;;;;4.40;2.70;;;;;;;13.04;65.55;102069.00;5473680;26;20332;-81
2024/04/10 10:06:02;;;;;;;5.17;2.63;;;;;;;12.90;65.27;102110.06;5508841;25;20270;-82
2024/04/10 10:08:33;;;;;;;6.40;2.53;;;;;;;12.84;64.47;102125.81;5493941;25;20320;-81
2024/04/10 10:10:59;;;;;;;3.33;2.20;;;;;;;12.82;64.80;102153.78;5469405;26;20276;-82
2024/04/10 10:13:30;;;;;;;3.17;2.50;;;;;;;13.26;66.17;102135.38;5470421;26;20288;-80
2024/04/10 10:15:57;;;;;;;4.70;2.90;;;;;;;12.88;64.38;102154.66;5469936;26;20225;-82
2024/04/10 10:18:25;;;;;;;5.23;3.03;;;;;;;13.11;64.44;102180.81;5468301;26;20328;-82
2024/04/10 10:21:00;;;;;;;3.77;2.63;;;;;;;13.29;64.79;102173.81;5471524;26;20237;-82
2024/04/10 10:23:28;;;;;;;5.20;2.73;;;;;;;13.22;62.90;102193.03;5501653;26;20792;-81
2024/04/10 10:25:56;;;;;;;5.97;2.53;;;;;;;13.40;64.90;102194.78;5474424;26;20324;-79
2024/04/10 10:28:29;;;;;;;7.10;2.57;;;;;;;13.40;62.07;102202.66;5484885;26;20257;-81
2024/04/10 10:31:04;;;;;;;5.17;2.67;;;;;;;13.44;62.99;102231.53;5505988;25;20784;-79
2024/04/10 10:33:32;;;;;;;4.10;2.67;;;;;;;13.42;61.26;102258.59;5504794;25;20274;-80
2024/04/10 10:35:58;;;;;;;4.47;2.60;;;;;;;13.59;62.07;102264.72;5502285;25;20239;-79
2024/04/10 10:38:26;;;;;;;2.70;2.50;;;;;;;13.54;62.69;102271.72;5516081;25;20256;-80
2024/04/10 10:40:51;;;;;;;4.13;2.30;;;;;;;13.54;61.29;102281.31;5482967;26;21020;-81
2024/04/10 10:43:22;;;;;;;4.43;3.20;;;;;;;13.28;62.82;102292.72;5512112;25;20239;-80
2024/04/10 10:45:50;;;;;;;4.03;2.47;;;;;;;13.35;63.02;102278.75;5500203;25;20237;-81
2024/04/10 10:48:18;;;;;;;5.53;2.73;;;;;;;13.52;62.26;102273.50;5487623;26;20272;-81
2024/04/10 10:50:44;;;;;;;3.33;1.53;;;;;;;13.73;62.27;102275.19;5495707;26;20236;-80
2024/04/10 10:53:22;;;;;;;6.33;2.57;;;;;;;13.93;62.45;102262.00;5506911;25;20290;-82
2024/04/10 10:55:54;;;;;;;3.87;2.10;;;;;;;13.90;61.11;102299.63;5523281;25;20234;-82
2024/04/10 10:58:26;;;;;;;4.37;2.00;;;;;;;13.94;60.26;102313.63;5506517;25;20281;-81
2024/04/10 11:00:52;;;;;;;5.47;2.47;;;;;;;13.74;60.09;102341.69;5484379;26;20240;-81
2024/04/10 11:03:20;;;;;;;4.57;1.97;;;;;;;13.83;60.98;102336.41;5491296;26;20258;-81
2024/04/10 11:05:46;;;;;;;3.47;2.23;;;;;;;13.57;61.27;102345.19;5502219;26;20236;-81
2024/04/10 11:08:14;;;;;;;6.13;1.93;;;;;;;13.18;62.00;102332.91;5497622;26;20274;-81
2024/04/10 11:10:39;;;;;;;3.27;1.63;;;;;;;13.02;62.38;102322.44;5491121;26;20237;-81
2024/04/10 11:13:09;;;;;;;2.67;1.80;;;;;;;13.15;62.16;102309.31;5504067;26;20227;-80
2024/04/10 11:15:43;;;;;;;3.77;2.47;;;;;;;13.33;61.46;102304.09;5497238;26;20758;-83
2024/04/10 11:18:11;;;;;;;3.57;2.10;;;;;;;13.31;60.13;102332.94;5487649;26;20246;-81
2024/04/10 11:20:37;;;;;;;4.77;2.20;;;;;;;13.32;62.01;102328.59;5465847;26;20287;-83
2024/04/10 11:23:06;;;;;;;2.67;1.90;;;;;;;13.65;60.31;102313.69;5473559;26;20240;-82
2024/04/10 11:25:33;;;;;;;2.40;1.97;;;;;;;14.03;60.19;102332.00;5483837;26;20263;-82
2024/04/10 11:28:01;;;;;;;3.77;2.37;;;;;;;14.18;58.83;102354.69;5461677;26;20229;-83
2024/04/10 11:30:28;;;;;;;2.47;2.23;;;;;;;14.22;57.81;102390.56;5462285;26;20847;-82
2024/04/10 11:33:02;;;;;;;4.10;2.40;;;;;;;13.62;59.98;102421.28;5481055;26;20266;-82
2024/04/10 11:35:28;;;;;;;5.03;2.30;;;;;;;14.09;60.23;102381.88;5480794;26;20283;-83
2024/04/10 11:37:57;;;;;;;4.53;2.60;;;;;;;14.03;58.80;102407.25;5489953;26;20280;-83
2024/04/10 11:40:23;;;;;;;3.20;2.23;;;;;;;14.30;59.29;102401.06;5472599;26;20366;-81